Time;durP1;ratioP1;P1;durP2;ratioP2;P2;SDS_P1;SDS_P2;PMS_P1;PMS_P2;Temp;Humidity;BMP_temperature;BMP_pressure;BME280_temperature;BME280_humidity;BME280_pressure;Samples;Min_cycle;Max_cycle;Signal;HPM_P1;HPM_P2
2021/08/29 00:01:02;;;;;;;9.63;5.22;;;;;;;;;;5110882;28;20030;-70
2021/08/29 00:03:28;;;;;;;10.40;4.80;;;;;;;;;;5111243;28;20426;-71
2021/08/29 00:05:55;;;;;;;9.43;4.57;;;;;;;;;;5110864;28;20024;-71
2021/08/29 00:08:21;;;;;;;8.23;4.70;;;;;;;;;;5111362;28;20495;-70
2021/08/29 00:10:47;;;;;;;9.57;5.22;;;;;;;;;;5110075;28;20357;-70
2021/08/29 00:13:13;;;;;;;9.25;5.18;;;;;;;;;;5110570;28;20023;-69
2021/08/29 00:17:30;;;;;;;11.00;5.78;;;;;;;;;;5070978;28;20415;-69
2021/08/29 00:22:08;;;;;;;9.15;5.22;;;;;;;;;;5050390;28;20828;-69
2021/08/29 00:24:34;;;;;;;11.32;5.50;;;;;;;;;;5051311;28;20029;-69
2021/08/29 00:27:01;;;;;;;9.40;5.75;;;;;;;;;;5050506;28;20436;-70
2021/08/29 00:29:27;;;;;;;8.77;4.85;;;;;;;;;;5050630;28;20433;-69
2021/08/29 00:31:53;;;;;;;10.52;5.80;;;;;;;;;;5050976;28;20028;-70
2021/08/29 00:35:13;;;;;;;10.73;5.47;;;;;;;;;;5111188;27;20420;-69
2021/08/29 00:37:39;;;;;;;9.43;5.25;;;;;;;;;;5111554;28;20081;-70
2021/08/29 00:40:06;;;;;;;8.93;5.22;;;;;;;;;;5111812;28;20099;-70
2021/08/29 00:42:32;;;;;;;10.90;5.20;;;;;;;;;;5110782;28;20069;-70
2021/08/29 00:44:58;;;;;;;9.82;5.55;;;;;;;;;;5111216;28;20092;-70
2021/08/29 00:47:24;;;;;;;8.93;4.80;;;;;;;;;;5111245;28;20024;-70
2021/08/29 00:49:51;;;;;;;9.57;5.38;;;;;;;;;;5110784;28;20019;-69
2021/08/29 00:54:18;;;;;;;10.40;5.65;;;;;;;;;;5070771;28;20391;-69
2021/08/29 00:56:44;;;;;;;9.68;4.90;;;;;;;;;;5070333;28;20025;-69
2021/08/29 00:59:10;;;;;;;10.07;5.40;;;;;;;;;;5069364;28;20028;-71
2021/08/29 01:01:42;;;;;;;11.77;5.20;;;;;;;;;;5070657;28;20099;-70
2021/08/29 01:04:12;;;;;;;10.40;5.47;;;;;;;;;;5070163;28;20023;-70
2021/08/29 01:08:13;;;;;;;9.05;5.82;;;;;;;;;;5111556;27;20409;-70
2021/08/29 01:10:43;;;;;;;8.77;4.93;;;;;;;;;;5110943;28;20020;-70
2021/08/29 01:13:11;;;;;;;9.43;5.13;;;;;;;;;;5111521;28;20015;-70
2021/08/29 01:15:37;;;;;;;11.85;5.57;;;;;;;;;;5111254;28;20042;-70
2021/08/29 01:18:04;;;;;;;9.93;5.50;;;;;;;;;;5110811;28;20020;-70
2021/08/29 01:21:03;;;;;;;10.43;5.57;;;;;;;;;;5111528;27;20820;-68
2021/08/29 01:23:31;;;;;;;9.55;5.25;;;;;;;;;;5110806;28;20480;-68
2021/08/29 01:26:29;;;;;;;12.27;6.45;;;;;;;;;;5071191;28;20410;-71
2021/08/29 01:28:56;;;;;;;10.10;5.75;;;;;;;;;;5070872;28;20078;-69
2021/08/29 01:31:25;;;;;;;8.93;5.20;;;;;;;;;;5070266;28;20385;-69
2021/08/29 01:33:51;;;;;;;12.98;5.63;;;;;;;;;;5070628;28;20025;-69
2021/08/29 01:36:18;;;;;;;10.55;5.45;;;;;;;;;;5070584;28;20424;-71
2021/08/29 01:41:49;;;;;;;7.72;4.60;;;;;;;;;;5111635;27;20395;-70
2021/08/29 01:44:15;;;;;;;10.68;5.45;;;;;;;;;;5111318;28;20028;-70
2021/08/29 01:48:26;;;;;;;9.77;5.25;;;;;;;;;;5050748;28;20416;-69
2021/08/29 01:53:17;;;;;;;9.68;5.78;;;;;;;;;;5050439;28;20440;-68
2021/08/29 01:55:44;;;;;;;10.23;4.97;;;;;;;;;;5049490;28;20033;-68
2021/08/29 01:58:10;;;;;;;8.35;4.82;;;;;;;;;;5050654;28;20029;-69
2021/08/29 02:00:57;;;;;;;10.88;5.55;;;;;;;;;;5050322;28;20025;-69
2021/08/29 02:03:23;;;;;;;10.57;5.60;;;;;;;;;;5050481;28;20052;-70
2021/08/29 02:05:50;;;;;;;9.52;5.28;;;;;;;;;;5050313;28;20031;-69
2021/08/29 02:08:17;;;;;;;10.25;5.35;;;;;;;;;;5050683;28;20029;-70
2021/08/29 02:10:47;;;;;;;9.25;5.55;;;;;;;;;;5050457;28;20064;-69
2021/08/29 02:13:15;;;;;;;9.95;5.18;;;;;;;;;;5050060;28;20401;-69
2021/08/29 02:15:44;;;;;;;9.43;5.60;;;;;;;;;;5050376;28;20032;-69
2021/08/29 02:18:12;;;;;;;16.02;5.40;;;;;;;;;;5050388;28;20026;-69
2021/08/29 02:20:38;;;;;;;10.13;5.97;;;;;;;;;;5050149;28;20431;-68
2021/08/29 02:25:11;;;;;;;10.40;6.38;;;;;;;;;;5112047;27;20410;-69
2021/08/29 02:27:38;;;;;;;10.38;5.63;;;;;;;;;;5110880;28;20472;-71
2021/08/29 02:30:05;;;;;;;10.70;5.95;;;;;;;;;;5109989;28;20454;-69
2021/08/29 02:36:23;;;;;;;10.30;5.57;;;;;;;;;;5111473;27;20412;-69
2021/08/29 02:40:21;;;;;;;9.38;6.05;;;;;;;;;;5071522;28;20403;-69
2021/08/29 02:42:48;;;;;;;11.77;6.10;;;;;;;;;;5070391;28;20029;-69
2021/08/29 02:45:44;;;;;;;10.43;6.03;;;;;;;;;;5030922;28;20847;-68
2021/08/29 02:48:10;;;;;;;11.75;6.90;;;;;;;;;;5030392;28;20532;-68
2021/08/29 02:50:37;;;;;;;11.63;6.28;;;;;;;;;;5030756;28;20018;-68
2021/08/29 02:53:03;;;;;;;9.63;6.30;;;;;;;;;;5030770;28;20030;-68
2021/08/29 02:55:30;;;;;;;9.82;6.18;;;;;;;;;;5030306;28;20470;-68
2021/08/29 02:59:07;;;;;;;11.30;6.13;;;;;;;;;;5111905;27;20412;-69
2021/08/29 03:03:46;;;;;;;10.98;6.63;;;;;;;;;;5070432;28;20400;-70
2021/08/29 03:06:12;;;;;;;11.30;6.53;;;;;;;;;;5070788;28;20496;-70
2021/08/29 03:10:01;;;;;;;13.57;6.72;;;;;;;;;;5030893;28;20422;-68
2021/08/29 03:12:28;;;;;;;10.02;6.07;;;;;;;;;;5030796;28;20030;-68
2021/08/29 03:14:54;;;;;;;11.00;7.10;;;;;;;;;;5030690;28;20028;-69
2021/08/29 03:21:39;;;;;;;13.35;7.00;;;;;;;;;;5090999;27;20402;-68
2021/08/29 03:24:05;;;;;;;10.93;7.38;;;;;;;;;;5090502;28;20033;-70
2021/08/29 03:27:38;;;;;;;11.80;7.43;;;;;;;;;;5152481;27;20363;-68
2021/08/29 03:32:07;;;;;;;14.15;7.63;;;;;;;;;;5030729;28;20422;-69
2021/08/29 03:34:35;;;;;;;14.15;8.43;;;;;;;;;;5031094;28;20041;-68
2021/08/29 03:38:00;;;;;;;11.27;7.40;;;;;;;;;;5111248;27;20409;-70
2021/08/29 03:40:27;;;;;;;14.05;8.13;;;;;;;;;;5111492;28;20495;-70
2021/08/29 03:42:53;;;;;;;10.20;7.15;;;;;;;;;;5111201;28;20077;-69
2021/08/29 03:45:19;;;;;;;13.88;7.75;;;;;;;;;;5110894;28;20099;-69
2021/08/29 03:47:46;;;;;;;12.15;8.38;;;;;;;;;;5111155;28;20427;-69
2021/08/29 03:50:12;;;;;;;10.55;7.60;;;;;;;;;;5111046;28;20048;-70
2021/08/29 03:52:39;;;;;;;12.43;8.43;;;;;;;;;;5110619;28;20047;-69
2021/08/29 03:55:05;;;;;;;12.43;8.15;;;;;;;;;;5110976;28;20095;-70
2021/08/29 03:58:26;;;;;;;11.35;7.80;;;;;;;;;;5111519;27;20420;-70
2021/08/29 04:00:52;;;;;;;12.50;8.05;;;;;;;;;;5111280;28;20028;-70
2021/08/29 04:03:18;;;;;;;11.85;8.52;;;;;;;;;;5111308;28;20034;-70
2021/08/29 04:05:45;;;;;;;12.25;7.70;;;;;;;;;;5110807;28;20027;-69
2021/08/29 04:08:12;;;;;;;11.30;7.50;;;;;;;;;;5111411;28;20091;-69
2021/08/29 04:12:20;;;;;;;13.85;8.27;;;;;;;;;;5111157;27;20427;-68
2021/08/29 04:14:47;;;;;;;12.07;8.00;;;;;;;;;;5111485;28;20035;-69
2021/08/29 04:17:42;;;;;;;13.68;8.00;;;;;;;;;;5031312;28;20775;-69
2021/08/29 04:20:08;;;;;;;14.02;9.50;;;;;;;;;;5030645;28;20067;-69
2021/08/29 04:23:33;;;;;;;11.73;8.00;;;;;;;;;;5111795;27;20412;-68
2021/08/29 04:26:00;;;;;;;12.13;8.48;;;;;;;;;;5111281;28;20028;-68
2021/08/29 04:28:26;;;;;;;11.48;8.32;;;;;;;;;;5110914;28;20429;-69
2021/08/29 04:30:52;;;;;;;11.32;7.25;;;;;;;;;;5111220;28;20484;-69
2021/08/29 04:34:07;;;;;;;12.20;8.10;;;;;;;;;;5110893;27;20839;-70
2021/08/29 04:36:35;;;;;;;14.23;8.85;;;;;;;;;;5111416;28;20031;-70
2021/08/29 04:39:03;;;;;;;11.73;8.27;;;;;;;;;;5111436;28;20028;-70
2021/08/29 04:41:29;;;;;;;13.80;9.43;;;;;;;;;;5110754;28;20016;-70
2021/08/29 04:43:56;;;;;;;11.57;8.18;;;;;;;;;;5111656;28;20372;-70
2021/08/29 04:46:22;;;;;;;12.65;9.10;;;;;;;;;;5111128;28;20016;-70
2021/08/29 04:50:21;;;;;;;11.85;7.45;;;;;;;;;;5111975;27;20429;-71
2021/08/29 04:53:54;;;;;;;14.77;8.60;;;;;;;;;;5111653;27;20473;-70
2021/08/29 04:57:25;;;;;;;12.63;8.52;;;;;;;;;;5050983;28;20430;-70
2021/08/29 05:02:06;;;;;;;11.88;8.52;;;;;;;;;;5111077;27;20392;-70
2021/08/29 05:04:32;;;;;;;16.75;8.70;;;;;;;;;;5111340;28;20362;-69
2021/08/29 05:07:15;;;;;;;12.68;8.60;;;;;;;;;;5031317;28;20758;-69
2021/08/29 05:11:43;;;;;;;11.60;7.90;;;;;;;;;;5111784;27;20927;-69
2021/08/29 05:14:09;;;;;;;14.48;8.90;;;;;;;;;;5111552;28;20027;-69
2021/08/29 05:18:41;;;;;;;12.23;8.55;;;;;;;;;;5111213;27;20318;-68
2021/08/29 05:21:40;;;;;;;12.07;8.65;;;;;;;;;;5173456;27;20303;-69
2021/08/29 05:24:07;;;;;;;13.07;7.80;;;;;;;;;;5152048;27;20076;-70
2021/08/29 05:26:33;;;;;;;36.97;9.07;;;;;;;;;;5152392;27;20019;-69
2021/08/29 05:28:59;;;;;;;14.27;9.10;;;;;;;;;;5152688;27;20055;-70
2021/08/29 05:31:25;;;;;;;11.40;7.95;;;;;;;;;;5151958;27;20044;-69
2021/08/29 05:33:52;;;;;;;14.30;9.70;;;;;;;;;;5152179;27;20463;-70
2021/08/29 05:36:18;;;;;;;15.02;9.25;;;;;;;;;;5152316;27;20038;-70
2021/08/29 05:38:44;;;;;;;12.07;8.88;;;;;;;;;;5151805;27;20050;-70
2021/08/29 05:41:51;;;;;;;12.02;7.75;;;;;;;;;;5071271;28;20943;-71
2021/08/29 05:44:40;;;;;;;13.10;8.80;;;;;;;;;;5111327;27;20553;-70
2021/08/29 05:47:51;;;;;;;12.80;9.23;;;;;;;;;;5111848;27;20397;-72
2021/08/29 05:50:17;;;;;;;15.05;9.05;;;;;;;;;;5111325;28;20468;-72
2021/08/29 05:52:57;;;;;;;14.13;9.38;;;;;;;;;;5111697;27;20380;-71
2021/08/29 05:57:06;;;;;;;12.48;8.15;;;;;;;;;;5111594;27;20388;-72
2021/08/29 06:00:15;;;;;;;14.73;8.88;;;;;;;;;;5111795;27;20737;-70
2021/08/29 06:02:41;;;;;;;12.13;8.32;;;;;;;;;;5111339;28;20533;-70
2021/08/29 06:05:08;;;;;;;12.00;8.50;;;;;;;;;;5110846;28;20077;-69
2021/08/29 06:09:09;;;;;;;13.70;8.77;;;;;;;;;;5111718;27;20827;-71
2021/08/29 06:11:36;;;;;;;12.68;8.25;;;;;;;;;;5111017;28;20536;-70
2021/08/29 06:14:32;;;;;;;13.18;9.18;;;;;;;;;;5031556;28;20414;-70
2021/08/29 06:18:46;;;;;;;14.98;8.77;;;;;;;;;;5111161;27;20464;-69
2021/08/29 06:21:12;;;;;;;13.93;8.65;;;;;;;;;;5111471;28;20023;-69
2021/08/29 06:23:38;;;;;;;13.50;9.23;;;;;;;;;;5111309;28;20028;-70
2021/08/29 06:26:04;;;;;;;13.40;8.90;;;;;;;;;;5111305;28;20380;-70
2021/08/29 06:28:30;;;;;;;14.65;10.13;;;;;;;;;;5111225;28;20043;-70
2021/08/29 06:30:56;;;;;;;13.38;8.60;;;;;;;;;;5111184;28;20498;-70
2021/08/29 06:33:45;;;;;;;13.65;9.23;;;;;;;;;;5111119;27;20415;-70
2021/08/29 06:36:12;;;;;;;15.35;8.80;;;;;;;;;;5111399;28;20047;-70
2021/08/29 06:38:58;;;;;;;18.08;11.40;;;;;;;;;;5111838;27;20438;-70
2021/08/29 06:43:37;;;;;;;23.23;12.48;;;;;;;;;;5051270;28;20486;-70
2021/08/29 06:46:03;;;;;;;18.05;11.13;;;;;;;;;;5050903;28;20036;-70
2021/08/29 06:48:29;;;;;;;14.95;9.45;;;;;;;;;;5050411;28;20030;-70
2021/08/29 06:50:56;;;;;;;11.93;8.10;;;;;;;;;;5050895;28;20021;-70
2021/08/29 06:55:07;;;;;;;15.55;9.02;;;;;;;;;;5030530;28;20469;-69
2021/08/29 06:57:33;;;;;;;12.00;8.35;;;;;;;;;;5030978;28;20536;-69
2021/08/29 06:59:59;;;;;;;14.18;8.38;;;;;;;;;;5030997;28;20028;-70
2021/08/29 07:02:26;;;;;;;12.65;8.63;;;;;;;;;;5030470;28;20026;-69
2021/08/29 07:04:52;;;;;;;13.40;8.25;;;;;;;;;;5030967;28;20467;-69
2021/08/29 07:07:18;;;;;;;14.68;9.68;;;;;;;;;;5030549;28;20041;-69
2021/08/29 07:09:44;;;;;;;15.80;8.88;;;;;;;;;;5030243;28;20100;-69
2021/08/29 07:12:11;;;;;;;12.73;8.70;;;;;;;;;;5030517;28;20026;-69
2021/08/29 07:14:37;;;;;;;13.55;7.53;;;;;;;;;;5030473;28;20043;-69
2021/08/29 07:18:45;;;;;;;12.30;8.27;;;;;;;;;;5111553;27;20412;-70
2021/08/29 07:21:12;;;;;;;11.57;7.82;;;;;;;;;;5111357;28;20024;-69
2021/08/29 07:23:38;;;;;;;14.15;8.25;;;;;;;;;;5126692;28;20395;-69
2021/08/29 07:26:04;;;;;;;12.18;7.82;;;;;;;;;;5111251;28;20516;-69
2021/08/29 07:28:30;;;;;;;15.07;8.35;;;;;;;;;;5126960;28;20392;-69
2021/08/29 07:30:56;;;;;;;10.57;7.10;;;;;;;;;;5110721;28;20024;-69
2021/08/29 07:33:33;;;;;;;12.80;7.13;;;;;;;;;;5111609;27;20408;-68
2021/08/29 07:39:19;;;;;;;14.02;8.35;;;;;;;;;;5051141;28;20467;-69
2021/08/29 07:41:46;;;;;;;10.93;8.23;;;;;;;;;;5050704;28;20025;-70
2021/08/29 07:44:12;;;;;;;11.98;7.95;;;;;;;;;;5050463;28;20385;-69
2021/08/29 07:46:59;;;;;;;12.30;7.55;;;;;;;;;;5112095;27;20376;-68
2021/08/29 07:49:25;;;;;;;12.52;7.35;;;;;;;;;;5111331;28;20034;-69
2021/08/29 07:51:51;;;;;;;11.25;6.65;;;;;;;;;;5110781;28;20421;-69
2021/08/29 07:54:17;;;;;;;11.73;6.88;;;;;;;;;;5111161;28;20103;-69
2021/08/29 07:56:44;;;;;;;10.35;6.68;;;;;;;;;;5111134;28;20020;-69
2021/08/29 08:00:48;;;;;;;8.68;6.43;;;;;;;;;;5071035;28;20387;-68
2021/08/29 08:03:15;;;;;;;15.10;7.25;;;;;;;;;;5070861;28;20032;-70
2021/08/29 08:05:41;;;;;;;12.32;6.60;;;;;;;;;;5070351;28;20029;-70
2021/08/29 08:08:07;;;;;;;10.02;6.07;;;;;;;;;;5071192;28;20024;-69
2021/08/29 08:11:08;;;;;;;10.50;6.70;;;;;;;;;;5031297;28;20414;-69
2021/08/29 08:13:35;;;;;;;10.85;6.75;;;;;;;;;;5030835;28;20032;-69
2021/08/29 08:16:01;;;;;;;11.18;6.35;;;;;;;;;;5030860;28;20025;-69
2021/08/29 08:18:28;;;;;;;11.63;6.72;;;;;;;;;;5030553;28;20103;-71
2021/08/29 08:20:55;;;;;;;10.15;6.22;;;;;;;;;;5030669;28;20029;-69
2021/08/29 08:23:21;;;;;;;10.57;6.43;;;;;;;;;;5030651;28;20037;-70
2021/08/29 08:25:47;;;;;;;10.80;5.90;;;;;;;;;;5030274;28;20022;-70
2021/08/29 08:29:59;;;;;;;9.70;6.85;;;;;;;;;;5111294;27;20818;-69
2021/08/29 08:32:25;;;;;;;13.40;6.47;;;;;;;;;;5111150;28;20028;-69
2021/08/29 08:37:00;;;;;;;10.13;5.80;;;;;;;;;;5111629;27;20397;-69
2021/08/29 08:39:26;;;;;;;9.75;5.22;;;;;;;;;;5110865;28;20028;-69
2021/08/29 08:41:52;;;;;;;9.13;5.38;;;;;;;;;;5111688;28;20464;-70
2021/08/29 08:44:19;;;;;;;10.57;4.65;;;;;;;;;;5111249;28;20024;-70
2021/08/29 08:46:45;;;;;;;8.52;5.38;;;;;;;;;;5110772;28;20043;-70
2021/08/29 08:49:13;;;;;;;10.40;5.38;;;;;;;;;;5111042;28;20032;-70
2021/08/29 08:51:45;;;;;;;10.45;6.18;;;;;;;;;;5111185;28;20050;-70
2021/08/29 08:54:13;;;;;;;9.20;4.97;;;;;;;;;;5110799;28;20099;-70
2021/08/29 08:56:39;;;;;;;9.18;5.57;;;;;;;;;;5111158;28;20548;-70
2021/08/29 08:59:07;;;;;;;9.25;5.22;;;;;;;;;;5110893;28;20023;-70
2021/08/29 09:01:33;;;;;;;7.88;4.70;;;;;;;;;;5110508;28;20027;-70
2021/08/29 09:03:59;;;;;;;9.85;5.05;;;;;;;;;;5110937;28;20026;-70
2021/08/29 09:06:26;;;;;;;9.10;5.05;;;;;;;;;;5110825;28;20028;-70
2021/08/29 09:08:52;;;;;;;10.73;6.32;;;;;;;;;;5110385;28;20020;-70
2021/08/29 09:11:18;;;;;;;7.68;4.82;;;;;;;;;;5110961;28;20016;-70
2021/08/29 09:13:47;;;;;;;9.25;5.30;;;;;;;;;;5110576;28;20020;-70
2021/08/29 09:16:14;;;;;;;10.20;5.80;;;;;;;;;;5110084;28;20063;-71
2021/08/29 09:18:51;;;;;;;8.88;5.45;;;;;;;;;;5110671;28;20024;-71
2021/08/29 09:21:29;;;;;;;10.15;5.28;;;;;;;;;;5110598;28;20016;-70
2021/08/29 09:23:56;;;;;;;10.25;5.18;;;;;;;;;;5110680;28;20073;-70
2021/08/29 09:26:23;;;;;;;9.50;5.53;;;;;;;;;;5110698;28;20023;-70
2021/08/29 09:28:50;;;;;;;8.50;4.75;;;;;;;;;;5109917;28;20030;-70
2021/08/29 09:31:18;;;;;;;9.65;5.72;;;;;;;;;;5110442;28;20081;-70
2021/08/29 09:33:58;;;;;;;8.75;4.82;;;;;;;;;;5110263;28;20480;-70
2021/08/29 09:36:30;;;;;;;7.47;4.60;;;;;;;;;;5109736;28;20572;-70
2021/08/29 09:39:09;;;;;;;9.68;5.25;;;;;;;;;;5110143;28;20028;-70
2021/08/29 09:41:35;;;;;;;10.00;5.05;;;;;;;;;;5110451;28;20023;-70
2021/08/29 09:44:15;;;;;;;8.52;4.60;;;;;;;;;;5109692;28;20076;-71
2021/08/29 09:47:04;;;;;;;7.18;4.68;;;;;;;;;;5105710;28;20048;-71
2021/08/29 09:49:34;;;;;;;9.70;5.32;;;;;;;;;;5096540;28;20031;-70
2021/08/29 09:52:01;;;;;;;8.18;4.40;;;;;;;;;;5096615;28;20093;-70
2021/08/29 09:54:27;;;;;;;10.38;5.18;;;;;;;;;;5096680;28;20054;-70
2021/08/29 09:56:53;;;;;;;8.45;4.82;;;;;;;;;;5095839;28;20100;-70
2021/08/29 09:59:37;;;;;;;10.73;5.22;;;;;;;;;;5096556;28;20016;-70
2021/08/29 10:02:03;;;;;;;9.55;5.40;;;;;;;;;;5096233;28;20031;-70
2021/08/29 10:04:30;;;;;;;8.55;4.93;;;;;;;;;;5095752;28;20091;-70
2021/08/29 10:06:56;;;;;;;9.93;5.43;;;;;;;;;;5096260;28;20031;-70
2021/08/29 10:09:26;;;;;;;9.50;5.85;;;;;;;;;;5096025;28;20028;-69
2021/08/29 10:11:52;;;;;;;10.30;5.50;;;;;;;;;;5095736;28;20056;-70
2021/08/29 10:14:18;;;;;;;12.75;5.60;;;;;;;;;;5095935;28;20020;-70
2021/08/29 10:16:46;;;;;;;9.05;4.93;;;;;;;;;;5095811;28;20032;-70
2021/08/29 10:19:15;;;;;;;8.63;4.53;;;;;;;;;;5095532;28;20020;-70
2021/08/29 10:21:41;;;;;;;9.30;4.47;;;;;;;;;;5095800;28;20082;-70
2021/08/29 10:24:08;;;;;;;8.18;4.57;;;;;;;;;;5095744;28;20020;-70
2021/08/29 10:26:34;;;;;;;8.70;4.55;;;;;;;;;;5095324;28;20040;-70
2021/08/29 10:29:09;;;;;;;9.02;5.28;;;;;;;;;;5095520;28;20035;-70
2021/08/29 10:31:39;;;;;;;6.45;4.20;;;;;;;;;;5095615;28;20024;-70
2021/08/29 10:34:06;;;;;;;8.00;4.50;;;;;;;;;;5095133;28;20043;-69
2021/08/29 10:36:32;;;;;;;7.00;4.38;;;;;;;;;;5095261;28;20166;-70
2021/08/29 10:38:58;;;;;;;8.80;4.35;;;;;;;;;;5095284;28;20020;-70
2021/08/29 10:41:25;;;;;;;5.85;3.38;;;;;;;;;;5095922;28;20048;-70
2021/08/29 10:43:52;;;;;;;10.65;4.00;;;;;;;;;;5095392;28;20020;-69
2021/08/29 10:46:19;;;;;;;7.53;4.15;;;;;;;;;;5094858;28;20426;-69
2021/08/29 10:48:49;;;;;;;7.43;3.88;;;;;;;;;;5095663;28;20519;-69
2021/08/29 10:51:18;;;;;;;7.95;4.25;;;;;;;;;;5095347;28;20028;-69
2021/08/29 10:53:49;;;;;;;8.15;4.45;;;;;;;;;;5094702;28;20016;-69
2021/08/29 10:56:15;;;;;;;8.83;4.67;;;;;;;;;;5095075;28;20028;-69
2021/08/29 10:58:42;;;;;;;8.93;4.55;;;;;;;;;;5094062;28;20039;-70
2021/08/29 11:01:27;;;;;;;7.93;4.03;;;;;;;;;;5094806;28;20031;-70
2021/08/29 11:03:53;;;;;;;7.60;4.22;;;;;;;;;;5095316;28;20126;-69
2021/08/29 11:06:37;;;;;;;8.18;4.95;;;;;;;;;;5095106;28;20039;-69
2021/08/29 11:09:22;;;;;;;9.10;4.28;;;;;;;;;;5094412;28;20063;-70
2021/08/29 11:11:49;;;;;;;8.05;3.97;;;;;;;;;;5094861;28;20035;-70
2021/08/29 11:14:33;;;;;;;8.18;4.00;;;;;;;;;;5094300;28;20028;-70
2021/08/29 11:17:12;;;;;;;6.80;4.03;;;;;;;;;;5094616;28;20028;-70
2021/08/29 11:19:39;;;;;;;7.32;4.25;;;;;;;;;;5094817;28;20095;-72
2021/08/29 11:22:07;;;;;;;6.18;3.40;;;;;;;;;;5094253;28;20031;-69
2021/08/29 11:24:52;;;;;;;7.43;3.78;;;;;;;;;;5094810;28;20055;-70
2021/08/29 11:27:33;;;;;;;9.32;4.40;;;;;;;;;;5094458;28;20028;-70
2021/08/29 11:29:59;;;;;;;9.32;4.80;;;;;;;;;;5094078;28;20020;-71
2021/08/29 11:32:38;;;;;;;7.90;3.53;;;;;;;;;;5094429;28;20024;-69
2021/08/29 11:35:05;;;;;;;7.50;4.15;;;;;;;;;;5093758;28;20071;-70
2021/08/29 11:37:31;;;;;;;8.82;3.75;;;;;;;;;;5094323;28;20444;-69
2021/08/29 11:40:02;;;;;;;7.80;3.88;;;;;;;;;;5094280;28;20464;-70
2021/08/29 11:42:29;;;;;;;7.70;3.90;;;;;;;;;;5094046;28;20035;-69
2021/08/29 11:44:58;;;;;;;7.05;3.63;;;;;;;;;;5094554;28;20024;-70
2021/08/29 11:47:25;;;;;;;9.50;4.35;;;;;;;;;;5094675;28;20073;-70
2021/08/29 11:49:55;;;;;;;9.07;3.80;;;;;;;;;;5093775;28;20031;-69
2021/08/29 11:52:28;;;;;;;6.93;3.65;;;;;;;;;;5094026;28;20024;-69
2021/08/29 11:55:03;;;;;;;5.72;3.47;;;;;;;;;;5093952;28;20023;-70
2021/08/29 11:57:30;;;;;;;5.45;3.00;;;;;;;;;;5093565;28;20382;-70
2021/08/29 12:00:06;;;;;;;5.07;3.20;;;;;;;;;;5094161;28;20039;-70
2021/08/29 12:02:41;;;;;;;9.20;3.88;;;;;;;;;;5094502;28;20364;-69
2021/08/29 12:05:09;;;;;;;5.72;3.45;;;;;;;;;;5093625;28;20027;-70
2021/08/29 12:07:37;;;;;;;6.65;3.70;;;;;;;;;;5093941;28;20052;-70
2021/08/29 12:10:05;;;;;;;6.50;3.17;;;;;;;;;;5093851;28;20357;-70
2021/08/29 12:12:32;;;;;;;5.90;2.97;;;;;;;;;;5093321;28;20561;-70
2021/08/29 12:14:59;;;;;;;8.32;4.30;;;;;;;;;;5093729;28;20035;-70
2021/08/29 12:17:26;;;;;;;7.55;3.92;;;;;;;;;;5093314;28;20024;-70
2021/08/29 12:19:52;;;;;;;7.05;3.40;;;;;;;;;;5093813;28;20024;-69
2021/08/29 12:22:19;;;;;;;5.15;3.03;;;;;;;;;;5093574;28;20028;-71
2021/08/29 12:24:47;;;;;;;8.63;4.25;;;;;;;;;;5093470;28;20068;-71
2021/08/29 12:27:18;;;;;;;6.22;3.85;;;;;;;;;;5093606;28;20020;-70
2021/08/29 12:29:45;;;;;;;4.70;2.78;;;;;;;;;;5093200;28;20031;-69
2021/08/29 12:32:12;;;;;;;5.95;3.50;;;;;;;;;;5093091;28;20028;-70
2021/08/29 12:34:39;;;;;;;6.05;3.33;;;;;;;;;;5093258;28;20476;-70
2021/08/29 12:37:06;;;;;;;5.78;3.15;;;;;;;;;;5094729;28;20070;-70
2021/08/29 12:39:33;;;;;;;7.25;3.83;;;;;;;;;;5093152;28;20020;-70
2021/08/29 12:42:15;;;;;;;5.95;3.33;;;;;;;;;;5093480;28;20380;-71
2021/08/29 12:44:41;;;;;;;5.00;3.00;;;;;;;;;;5093716;28;20024;-70
2021/08/29 12:47:07;;;;;;;6.30;3.22;;;;;;;;;;5092977;28;20020;-70
2021/08/29 12:49:33;;;;;;;5.45;2.65;;;;;;;;;;5093434;28;20472;-69
2021/08/29 12:52:00;;;;;;;5.63;3.28;;;;;;;;;;5093506;28;20078;-69
2021/08/29 12:54:26;;;;;;;5.75;3.10;;;;;;;;;;5092862;28;20519;-70
2021/08/29 12:56:52;;;;;;;7.85;3.28;;;;;;;;;;5093471;28;20032;-70
2021/08/29 12:59:29;;;;;;;4.65;2.95;;;;;;;;;;5093336;28;20027;-70
2021/08/29 13:01:58;;;;;;;6.07;3.30;;;;;;;;;;5093176;28;20028;-70
2021/08/29 13:04:25;;;;;;;5.72;3.05;;;;;;;;;;5093166;28;20016;-70
2021/08/29 13:07:03;;;;;;;5.82;3.10;;;;;;;;;;5092874;28;20382;-70
2021/08/29 13:09:30;;;;;;;6.40;3.08;;;;;;;;;;5093195;28;20538;-70
2021/08/29 13:11:56;;;;;;;5.43;3.20;;;;;;;;;;5093765;28;20020;-69
2021/08/29 13:14:29;;;;;;;6.38;3.10;;;;;;;;;;5092843;28;20024;-70
2021/08/29 13:16:56;;;;;;;7.60;3.38;;;;;;;;;;5093143;28;20111;-69
2021/08/29 13:19:25;;;;;;;7.40;3.90;;;;;;;;;;5093097;28;20074;-69
2021/08/29 13:21:58;;;;;;;5.85;2.97;;;;;;;;;;5093299;28;20053;-69
2021/08/29 13:24:28;;;;;;;6.07;3.25;;;;;;;;;;5097458;28;20028;-70
2021/08/29 13:26:55;;;;;;;5.78;3.50;;;;;;;;;;5096936;28;20022;-70
2021/08/29 13:29:22;;;;;;;6.75;3.60;;;;;;;;;;5096504;28;20024;-70
2021/08/29 13:31:51;;;;;;;8.50;3.72;;;;;;;;;;5096881;28;20423;-69
2021/08/29 13:34:17;;;;;;;7.43;4.07;;;;;;;;;;5096750;28;20081;-69
2021/08/29 13:36:48;;;;;;;10.02;4.47;;;;;;;;;;5096014;28;20054;-69
2021/08/29 13:39:15;;;;;;;8.88;4.75;;;;;;;;;;5096601;28;20054;-69
2021/08/29 13:41:42;;;;;;;8.18;4.60;;;;;;;;;;5096140;28;20032;-69
2021/08/29 13:44:13;;;;;;;8.85;4.40;;;;;;;;;;5097067;28;20073;-70
2021/08/29 13:46:39;;;;;;;7.50;4.38;;;;;;;;;;5096469;28;20016;-70
2021/08/29 13:49:06;;;;;;;8.15;4.38;;;;;;;;;;5096019;28;20028;-70
2021/08/29 13:51:32;;;;;;;8.55;4.68;;;;;;;;;;5096369;28;20488;-70
2021/08/29 13:53:58;;;;;;;8.80;4.68;;;;;;;;;;5096358;28;20028;-70
2021/08/29 13:56:24;;;;;;;8.93;4.50;;;;;;;;;;5095867;28;20117;-70
2021/08/29 13:58:50;;;;;;;10.23;4.97;;;;;;;;;;5096320;28;20552;-70
2021/08/29 14:01:17;;;;;;;9.45;4.80;;;;;;;;;;5096183;28;20028;-70
2021/08/29 14:03:43;;;;;;;9.70;5.45;;;;;;;;;;5095786;28;20025;-70
2021/08/29 14:06:09;;;;;;;11.70;4.68;;;;;;;;;;5096155;28;20024;-70
2021/08/29 14:08:36;;;;;;;9.75;5.05;;;;;;;;;;5095972;28;20039;-68
2021/08/29 14:11:03;;;;;;;10.60;5.30;;;;;;;;;;5095589;28;20024;-70
2021/08/29 14:13:29;;;;;;;9.57;5.45;;;;;;;;;;5096144;28;20061;-71
2021/08/29 14:15:55;;;;;;;9.48;4.75;;;;;;;;;;5095964;28;20035;-69
2021/08/29 14:18:21;;;;;;;8.10;5.05;;;;;;;;;;5095456;28;20020;-69
2021/08/29 14:20:48;;;;;;;11.48;5.65;;;;;;;;;;5095684;28;20039;-69
2021/08/29 14:23:14;;;;;;;7.72;4.43;;;;;;;;;;5095719;28;20020;-69
2021/08/29 14:25:44;;;;;;;8.80;4.72;;;;;;;;;;5095211;28;20035;-69
2021/08/29 14:28:11;;;;;;;9.07;5.40;;;;;;;;;;5096009;28;20476;-69
2021/08/29 14:30:37;;;;;;;8.95;5.85;;;;;;;;;;5095787;28;20024;-69
2021/08/29 14:33:04;;;;;;;8.73;4.72;;;;;;;;;;5094994;28;20054;-69
2021/08/29 14:35:30;;;;;;;9.00;4.47;;;;;;;;;;5095200;28;20044;-69
2021/08/29 14:37:56;;;;;;;9.05;5.25;;;;;;;;;;5095197;28;20020;-69
2021/08/29 14:40:23;;;;;;;8.98;4.60;;;;;;;;;;5095361;28;20411;-69
2021/08/29 14:42:49;;;;;;;7.47;4.53;;;;;;;;;;5095784;28;20024;-70
2021/08/29 14:45:16;;;;;;;7.57;4.20;;;;;;;;;;5094906;28;20021;-70
2021/08/29 14:47:42;;;;;;;9.82;3.60;;;;;;;;;;5095332;28;20031;-70
2021/08/29 14:50:09;;;;;;;6.65;4.03;;;;;;;;;;5095124;28;20031;-70
2021/08/29 14:52:36;;;;;;;11.43;3.95;;;;;;;;;;5094712;28;20467;-70
2021/08/29 14:55:03;;;;;;;6.93;3.90;;;;;;;;;;5094997;28;20028;-70
2021/08/29 14:57:29;;;;;;;7.63;3.67;;;;;;;;;;5095068;28;20384;-70
2021/08/29 14:59:55;;;;;;;9.98;4.78;;;;;;;;;;5094719;28;20024;-69
2021/08/29 15:02:21;;;;;;;8.75;5.43;;;;;;;;;;5094902;28;20077;-69
2021/08/29 15:04:48;;;;;;;9.63;4.53;;;;;;;;;;5094976;28;20056;-70
2021/08/29 15:07:14;;;;;;;9.00;4.50;;;;;;;;;;5094521;28;20510;-69
2021/08/29 15:09:40;;;;;;;12.13;5.07;;;;;;;;;;5094807;28;20035;-69
2021/08/29 15:12:07;;;;;;;7.85;4.40;;;;;;;;;;5094868;28;20481;-70
2021/08/29 15:14:33;;;;;;;8.27;3.85;;;;;;;;;;5094330;28;20020;-70
2021/08/29 15:17:00;;;;;;;7.88;3.50;;;;;;;;;;5094745;28;20028;-70
2021/08/29 15:19:26;;;;;;;7.20;3.60;;;;;;;;;;5094849;28;20016;-70
2021/08/29 15:21:53;;;;;;;5.55;3.55;;;;;;;;;;5094421;28;20375;-69
2021/08/29 15:24:19;;;;;;;9.05;3.88;;;;;;;;;;5094648;28;20020;-70
2021/08/29 15:26:45;;;;;;;6.32;3.17;;;;;;;;;;5094607;28;20107;-69
2021/08/29 15:29:12;;;;;;;5.78;2.95;;;;;;;;;;5094123;28;20035;-68
2021/08/29 15:31:39;;;;;;;6.80;3.00;;;;;;;;;;5094512;28;20039;-71
2021/08/29 15:34:05;;;;;;;6.90;3.30;;;;;;;;;;5094405;28;20070;-70
2021/08/29 15:36:31;;;;;;;7.18;2.65;;;;;;;;;;5093765;28;20044;-70
2021/08/29 15:38:58;;;;;;;6.25;2.90;;;;;;;;;;5094316;28;20020;-70
2021/08/29 15:41:24;;;;;;;7.05;2.70;;;;;;;;;;5093874;28;20024;-71
2021/08/29 15:43:51;;;;;;;5.68;2.33;;;;;;;;;;5094335;28;20034;-70
2021/08/29 15:46:20;;;;;;;4.13;2.47;;;;;;;;;;5093699;28;20027;-69
2021/08/29 15:48:47;;;;;;;3.90;2.00;;;;;;;;;;5093809;28;20541;-69
2021/08/29 15:51:13;;;;;;;4.75;2.30;;;;;;;;;;5094287;28;20107;-69
2021/08/29 15:53:40;;;;;;;4.95;2.45;;;;;;;;;;5094017;28;20020;-69
2021/08/29 15:56:07;;;;;;;5.10;2.45;;;;;;;;;;5093631;28;20059;-69